sensor_id;sensor_type;location;lat;lon;timestamp;P1;durP1;ratioP1;P2;durP2;ratioP2
11269;SDS011;5692;48.956;9.200;2022-07-24T00:00:45;244.83;;;233.13;;
11269;SDS011;5692;48.956;9.200;2022-07-24T00:03:11;249.37;;;237.43;;
11269;SDS011;5692;48.956;9.200;2022-07-24T00:05:37;246.30;;;234.50;;
11269;SDS011;5692;48.956;9.200;2022-07-24T00:08:03;251.13;;;239.13;;
11269;SDS011;5692;48.956;9.200;2022-07-24T00:10:29;253.18;;;241.07;;
11269;SDS011;5692;48.956;9.200;2022-07-24T00:12:56;259.13;;;246.73;;
11269;SDS011;5692;48.956;9.200;2022-07-24T00:15:22;244.10;;;232.40;;
11269;SDS011;5692;48.956;9.200;2022-07-24T00:17:48;251.87;;;239.83;;
11269;SDS011;5692;48.956;9.200;2022-07-24T00:20:14;253.63;;;241.50;;
11269;SDS011;5692;48.956;9.200;2022-07-24T00:22:40;239.13;;;227.70;;
11269;SDS011;5692;48.956;9.200;2022-07-24T00:25:06;254.43;;;242.23;;
11269;SDS011;5692;48.956;9.200;2022-07-24T00:27:32;234.63;;;223.43;;
11269;SDS011;5692;48.956;9.200;2022-07-24T00:29:58;257.23;;;244.93;;
11269;SDS011;5692;48.956;9.200;2022-07-24T00:32:24;246.60;;;234.80;;
11269;SDS011;5692;48.956;9.200;2022-07-24T00:34:50;247.63;;;235.80;;
11269;SDS011;5692;48.956;9.200;2022-07-24T00:37:16;240.53;;;229.03;;
11269;SDS011;5692;48.956;9.200;2022-07-24T00:39:42;250.20;;;238.23;;
11269;SDS011;5692;48.956;9.200;2022-07-24T00:42:10;249.45;;;237.52;;
11269;SDS011;5692;48.956;9.200;2022-07-24T00:44:37;249.95;;;238.00;;
11269;SDS011;5692;48.956;9.200;2022-07-24T00:47:03;251.23;;;239.23;;
11269;SDS011;5692;48.956;9.200;2022-07-24T00:49:29;268.42;;;255.57;;
11269;SDS011;5692;48.956;9.200;2022-07-24T00:51:55;269.57;;;256.67;;
11269;SDS011;5692;48.956;9.200;2022-07-24T00:54:21;254.60;;;242.45;;
11269;SDS011;5692;48.956;9.200;2022-07-24T00:56:49;244.70;;;233.00;;
11269;SDS011;5692;48.956;9.200;2022-07-24T00:59:15;231.57;;;220.50;;
11269;SDS011;5692;48.956;9.200;2022-07-24T01:01:41;237.32;;;225.98;;
11269;SDS011;5692;48.956;9.200;2022-07-24T01:04:07;245.05;;;233.32;;
11269;SDS011;5692;48.956;9.200;2022-07-24T01:06:33;238.68;;;227.25;;
11269;SDS011;5692;48.956;9.200;2022-07-24T01:08:59;255.43;;;243.23;;
11269;SDS011;5692;48.956;9.200;2022-07-24T01:11:26;256.50;;;244.23;;
11269;SDS011;5692;48.956;9.200;2022-07-24T01:13:53;242.43;;;230.82;;
11269;SDS011;5692;48.956;9.200;2022-07-24T01:16:19;245.05;;;233.35;;
11269;SDS011;5692;48.956;9.200;2022-07-24T01:18:45;252.03;;;239.97;;
11269;SDS011;5692;48.956;9.200;2022-07-24T01:21:11;235.35;;;224.07;;
11269;SDS011;5692;48.956;9.200;2022-07-24T01:23:37;254.97;;;242.77;;
11269;SDS011;5692;48.956;9.200;2022-07-24T01:26:05;253.32;;;241.23;;
11269;SDS011;5692;48.956;9.200;2022-07-24T01:28:32;256.60;;;244.30;;
11269;SDS011;5692;48.956;9.200;2022-07-24T01:30:58;253.73;;;241.57;;
11269;SDS011;5692;48.956;9.200;2022-07-24T01:33:24;253.17;;;241.07;;
11269;SDS011;5692;48.956;9.200;2022-07-24T01:35:50;253.82;;;241.70;;
11269;SDS011;5692;48.956;9.200;2022-07-24T01:38:17;250.55;;;238.55;;
11269;SDS011;5692;48.956;9.200;2022-07-24T01:40:43;255.15;;;242.95;;
11269;SDS011;5692;48.956;9.200;2022-07-24T01:43:09;232.97;;;221.83;;
11269;SDS011;5692;48.956;9.200;2022-07-24T01:45:35;250.73;;;238.73;;
11269;SDS011;5692;48.956;9.200;2022-07-24T01:48:02;265.75;;;253.05;;
11269;SDS011;5692;48.956;9.200;2022-07-24T01:50:28;259.92;;;247.52;;
11269;SDS011;5692;48.956;9.200;2022-07-24T01:52:54;253.75;;;241.60;;
11269;SDS011;5692;48.956;9.200;2022-07-24T01:55:21;260.67;;;248.20;;
11269;SDS011;5692;48.956;9.200;2022-07-24T01:57:47;252.13;;;240.05;;
11269;SDS011;5692;48.956;9.200;2022-07-24T02:00:13;240.80;;;229.30;;
11269;SDS011;5692;48.956;9.200;2022-07-24T02:02:41;237.85;;;226.45;;
11269;SDS011;5692;48.956;9.200;2022-07-24T02:05:07;246.48;;;234.70;;
11269;SDS011;5692;48.956;9.200;2022-07-24T02:07:33;238.13;;;226.75;;
11269;SDS011;5692;48.956;9.200;2022-07-24T02:09:59;238.63;;;227.23;;
11269;SDS011;5692;48.956;9.200;2022-07-24T02:12:25;244.50;;;232.82;;
11269;SDS011;5692;48.956;9.200;2022-07-24T02:14:51;242.98;;;231.38;;
11269;SDS011;5692;48.956;9.200;2022-07-24T02:17:17;234.37;;;223.17;;
11269;SDS011;5692;48.956;9.200;2022-07-24T02:19:43;251.57;;;239.53;;
11269;SDS011;5692;48.956;9.200;2022-07-24T02:22:09;261.70;;;249.20;;
11269;SDS011;5692;48.956;9.200;2022-07-24T02:24:35;240.00;;;228.53;;
11269;SDS011;5692;48.956;9.200;2022-07-24T02:27:01;233.37;;;222.17;;
11269;SDS011;5692;48.956;9.200;2022-07-24T02:29:27;237.40;;;226.03;;
11269;SDS011;5692;48.956;9.200;2022-07-24T02:31:53;239.80;;;228.30;;
11269;SDS011;5692;48.956;9.200;2022-07-24T02:34:19;255.00;;;242.80;;
11269;SDS011;5692;48.956;9.200;2022-07-24T02:36:45;252.83;;;240.73;;
11269;SDS011;5692;48.956;9.200;2022-07-24T02:39:11;246.80;;;235.00;;
11269;SDS011;5692;48.956;9.200;2022-07-24T02:41:37;250.37;;;238.37;;
11269;SDS011;5692;48.956;9.200;2022-07-24T02:44:03;234.97;;;223.73;;
11269;SDS011;5692;48.956;9.200;2022-07-24T02:46:29;246.35;;;234.55;;
11269;SDS011;5692;48.956;9.200;2022-07-24T02:48:55;265.17;;;252.47;;
11269;SDS011;5692;48.956;9.200;2022-07-24T02:51:21;264.20;;;251.57;;
11269;SDS011;5692;48.956;9.200;2022-07-24T02:53:47;259.10;;;246.70;;
11269;SDS011;5692;48.956;9.200;2022-07-24T02:56:13;244.93;;;233.23;;
11269;SDS011;5692;48.956;9.200;2022-07-24T02:58:39;241.85;;;230.25;;
11269;SDS011;5692;48.956;9.200;2022-07-24T03:01:05;225.63;;;214.82;;
11269;SDS011;5692;48.956;9.200;2022-07-24T03:03:31;253.87;;;241.73;;
11269;SDS011;5692;48.956;9.200;2022-07-24T03:05:57;238.43;;;227.03;;
11269;SDS011;5692;48.956;9.200;2022-07-24T03:08:23;225.23;;;214.47;;
11269;SDS011;5692;48.956;9.200;2022-07-24T03:10:49;244.43;;;232.75;;
11269;SDS011;5692;48.956;9.200;2022-07-24T03:13:15;239.40;;;227.97;;
11269;SDS011;5692;48.956;9.200;2022-07-24T03:15:41;242.80;;;231.18;;
11269;SDS011;5692;48.956;9.200;2022-07-24T03:18:07;243.33;;;231.70;;
11269;SDS011;5692;48.956;9.200;2022-07-24T03:20:33;238.63;;;227.20;;
11269;SDS011;5692;48.956;9.200;2022-07-24T03:22:59;244.63;;;232.93;;
11269;SDS011;5692;48.956;9.200;2022-07-24T03:25:25;242.38;;;230.77;;
11269;SDS011;5692;48.956;9.200;2022-07-24T03:27:51;248.45;;;236.55;;
11269;SDS011;5692;48.956;9.200;2022-07-24T03:30:17;244.65;;;232.95;;
11269;SDS011;5692;48.956;9.200;2022-07-24T03:32:44;264.45;;;251.80;;
11269;SDS011;5692;48.956;9.200;2022-07-24T03:35:10;257.95;;;245.65;;
11269;SDS011;5692;48.956;9.200;2022-07-24T03:37:36;259.23;;;246.82;;
11269;SDS011;5692;48.956;9.200;2022-07-24T03:40:02;256.75;;;244.45;;
11269;SDS011;5692;48.956;9.200;2022-07-24T03:42:29;266.52;;;253.77;;
11269;SDS011;5692;48.956;9.200;2022-07-24T03:44:55;273.00;;;259.95;;
11269;SDS011;5692;48.956;9.200;2022-07-24T03:47:21;261.13;;;248.63;;
11269;SDS011;5692;48.956;9.200;2022-07-24T03:49:47;252.85;;;240.75;;
11269;SDS011;5692;48.956;9.200;2022-07-24T03:52:14;250.30;;;238.30;;
11269;SDS011;5692;48.956;9.200;2022-07-24T03:54:40;260.08;;;247.68;;
11269;SDS011;5692;48.956;9.200;2022-07-24T03:57:06;259.97;;;247.53;;
11269;SDS011;5692;48.956;9.200;2022-07-24T03:59:32;254.37;;;242.20;;
11269;SDS011;5692;48.956;9.200;2022-07-24T04:01:58;234.52;;;223.30;;
11269;SDS011;5692;48.956;9.200;2022-07-24T04:04:24;243.20;;;231.60;;
11269;SDS011;5692;48.956;9.200;2022-07-24T04:06:50;243.90;;;232.23;;
11269;SDS011;5692;48.956;9.200;2022-07-24T04:09:16;247.18;;;235.38;;
11269;SDS011;5692;48.956;9.200;2022-07-24T04:11:42;228.97;;;218.00;;
11269;SDS011;5692;48.956;9.200;2022-07-24T04:14:09;248.07;;;236.23;;
11269;SDS011;5692;48.956;9.200;2022-07-24T04:16:35;249.90;;;237.95;;
11269;SDS011;5692;48.956;9.200;2022-07-24T04:19:01;252.65;;;240.55;;
11269;SDS011;5692;48.956;9.200;2022-07-24T04:21:27;245.50;;;233.77;;
11269;SDS011;5692;48.956;9.200;2022-07-24T04:23:53;254.77;;;242.60;;
11269;SDS011;5692;48.956;9.200;2022-07-24T04:26:19;236.27;;;224.98;;
11269;SDS011;5692;48.956;9.200;2022-07-24T04:28:45;247.07;;;235.27;;
11269;SDS011;5692;48.956;9.200;2022-07-24T04:31:11;251.32;;;239.32;;
11269;SDS011;5692;48.956;9.200;2022-07-24T04:33:37;238.00;;;226.60;;
11269;SDS011;5692;48.956;9.200;2022-07-24T04:36:04;243.83;;;232.17;;
11269;SDS011;5692;48.956;9.200;2022-07-24T04:38:31;245.82;;;234.05;;
11269;SDS011;5692;48.956;9.200;2022-07-24T04:40:57;241.90;;;230.32;;
11269;SDS011;5692;48.956;9.200;2022-07-24T04:43:23;231.93;;;220.83;;
11269;SDS011;5692;48.956;9.200;2022-07-24T04:45:49;218.00;;;207.60;;
11269;SDS011;5692;48.956;9.200;2022-07-24T04:48:15;237.20;;;225.90;;
11269;SDS011;5692;48.956;9.200;2022-07-24T04:50:41;235.02;;;223.80;;
11269;SDS011;5692;48.956;9.200;2022-07-24T04:53:07;226.17;;;215.33;;
11269;SDS011;5692;48.956;9.200;2022-07-24T04:55:33;228.27;;;217.38;;
11269;SDS011;5692;48.956;9.200;2022-07-24T04:57:59;226.50;;;215.67;;
11269;SDS011;5692;48.956;9.200;2022-07-24T05:00:25;237.13;;;225.80;;
11269;SDS011;5692;48.956;9.200;2022-07-24T05:02:51;219.55;;;209.05;;
11269;SDS011;5692;48.956;9.200;2022-07-24T05:05:17;226.27;;;215.43;;
11269;SDS011;5692;48.956;9.200;2022-07-24T05:07:43;226.80;;;215.95;;
11269;SDS011;5692;48.956;9.200;2022-07-24T05:10:09;235.27;;;224.00;;
11269;SDS011;5692;48.956;9.200;2022-07-24T05:12:35;243.57;;;231.93;;
11269;SDS011;5692;48.956;9.200;2022-07-24T05:15:01;236.50;;;225.18;;
11269;SDS011;5692;48.956;9.200;2022-07-24T05:17:27;236.20;;;224.90;;
11269;SDS011;5692;48.956;9.200;2022-07-24T05:19:53;241.23;;;229.70;;
11269;SDS011;5692;48.956;9.200;2022-07-24T05:22:19;221.77;;;211.15;;
11269;SDS011;5692;48.956;9.200;2022-07-24T05:24:45;226.60;;;215.80;;
11269;SDS011;5692;48.956;9.200;2022-07-24T05:27:11;229.33;;;218.37;;
11269;SDS011;5692;48.956;9.200;2022-07-24T05:29:37;229.73;;;218.73;;
11269;SDS011;5692;48.956;9.200;2022-07-24T05:32:03;221.63;;;211.03;;
11269;SDS011;5692;48.956;9.200;2022-07-24T05:34:29;223.23;;;212.52;;
11269;SDS011;5692;48.956;9.200;2022-07-24T05:36:55;229.80;;;218.80;;
11269;SDS011;5692;48.956;9.200;2022-07-24T05:39:21;246.95;;;235.13;;
11269;SDS011;5692;48.956;9.200;2022-07-24T05:41:47;225.60;;;214.80;;
11269;SDS011;5692;48.956;9.200;2022-07-24T05:44:13;230.97;;;219.93;;
11269;SDS011;5692;48.956;9.200;2022-07-24T05:46:39;224.40;;;213.70;;
11269;SDS011;5692;48.956;9.200;2022-07-24T05:49:05;231.63;;;220.57;;
11269;SDS011;5692;48.956;9.200;2022-07-24T05:51:31;232.85;;;221.73;;
11269;SDS011;5692;48.956;9.200;2022-07-24T05:53:57;239.93;;;228.47;;
11269;SDS011;5692;48.956;9.200;2022-07-24T05:56:23;243.63;;;231.98;;
11269;SDS011;5692;48.956;9.200;2022-07-24T05:58:49;224.33;;;213.63;;
11269;SDS011;5692;48.956;9.200;2022-07-24T06:01:15;230.93;;;219.88;;
11269;SDS011;5692;48.956;9.200;2022-07-24T06:03:41;223.03;;;212.37;;
11269;SDS011;5692;48.956;9.200;2022-07-24T06:06:07;233.70;;;222.50;;
11269;SDS011;5692;48.956;9.200;2022-07-24T06:08:33;215.73;;;205.40;;
11269;SDS011;5692;48.956;9.200;2022-07-24T06:10:59;230.60;;;219.57;;
11269;SDS011;5692;48.956;9.200;2022-07-24T06:13:25;235.40;;;224.13;;
11269;SDS011;5692;48.956;9.200;2022-07-24T06:15:51;219.87;;;209.33;;
11269;SDS011;5692;48.956;9.200;2022-07-24T06:18:16;238.47;;;227.07;;
11269;SDS011;5692;48.956;9.200;2022-07-24T06:20:42;238.70;;;227.30;;
11269;SDS011;5692;48.956;9.200;2022-07-24T06:23:09;246.20;;;234.43;;
11269;SDS011;5692;48.956;9.200;2022-07-24T06:25:35;237.38;;;226.02;;
11269;SDS011;5692;48.956;9.200;2022-07-24T06:28:01;243.87;;;232.17;;
11269;SDS011;5692;48.956;9.200;2022-07-24T06:30:27;249.27;;;237.35;;
11269;SDS011;5692;48.956;9.200;2022-07-24T06:32:54;247.93;;;236.07;;
11269;SDS011;5692;48.956;9.200;2022-07-24T06:35:20;251.55;;;239.55;;
11269;SDS011;5692;48.956;9.200;2022-07-24T06:37:47;282.42;;;268.92;;
11269;SDS011;5692;48.956;9.200;2022-07-24T06:40:13;269.60;;;256.70;;
11269;SDS011;5692;48.956;9.200;2022-07-24T06:42:39;277.35;;;264.10;;
11269;SDS011;5692;48.956;9.200;2022-07-24T06:45:05;276.97;;;263.73;;
11269;SDS011;5692;48.956;9.200;2022-07-24T06:47:31;279.65;;;266.27;;
11269;SDS011;5692;48.956;9.200;2022-07-24T06:49:57;254.97;;;242.77;;
11269;SDS011;5692;48.956;9.200;2022-07-24T06:52:23;265.30;;;252.60;;
11269;SDS011;5692;48.956;9.200;2022-07-24T06:54:49;255.43;;;243.23;;
11269;SDS011;5692;48.956;9.200;2022-07-24T06:57:15;266.50;;;253.80;;
11269;SDS011;5692;48.956;9.200;2022-07-24T06:59:43;248.10;;;236.23;;
11269;SDS011;5692;48.956;9.200;2022-07-24T07:02:09;281.88;;;268.40;;
11269;SDS011;5692;48.956;9.200;2022-07-24T07:04:35;257.53;;;245.23;;
11269;SDS011;5692;48.956;9.200;2022-07-24T07:07:02;249.27;;;237.33;;
11269;SDS011;5692;48.956;9.200;2022-07-24T07:09:28;225.20;;;214.43;;
11269;SDS011;5692;48.956;9.200;2022-07-24T07:11:54;234.03;;;222.83;;
11269;SDS011;5692;48.956;9.200;2022-07-24T07:14:20;254.27;;;242.10;;
11269;SDS011;5692;48.956;9.200;2022-07-24T07:16:46;231.97;;;220.87;;
11269;SDS011;5692;48.956;9.200;2022-07-24T07:19:13;243.87;;;232.20;;
11269;SDS011;5692;48.956;9.200;2022-07-24T07:21:39;240.53;;;229.03;;
11269;SDS011;5692;48.956;9.200;2022-07-24T07:24:05;252.73;;;240.63;;
11269;SDS011;5692;48.956;9.200;2022-07-24T07:26:31;238.63;;;227.23;;
11269;SDS011;5692;48.956;9.200;2022-07-24T07:28:57;250.13;;;238.17;;
11269;SDS011;5692;48.956;9.200;2022-07-24T07:31:23;253.57;;;241.43;;
11269;SDS011;5692;48.956;9.200;2022-07-24T07:33:51;255.93;;;243.70;;
11269;SDS011;5692;48.956;9.200;2022-07-24T07:36:17;234.13;;;222.93;;
11269;SDS011;5692;48.956;9.200;2022-07-24T07:38:44;242.50;;;230.90;;
11269;SDS011;5692;48.956;9.200;2022-07-24T07:41:10;247.43;;;235.60;;
11269;SDS011;5692;48.956;9.200;2022-07-24T07:43:37;258.60;;;246.23;;
11269;SDS011;5692;48.956;9.200;2022-07-24T07:46:03;256.63;;;244.37;;
11269;SDS011;5692;48.956;9.200;2022-07-24T07:48:29;263.63;;;251.03;;
11269;SDS011;5692;48.956;9.200;2022-07-24T07:50:56;257.53;;;245.20;;
11269;SDS011;5692;48.956;9.200;2022-07-24T07:53:21;262.03;;;249.50;;
11269;SDS011;5692;48.956;9.200;2022-07-24T07:55:48;250.40;;;238.40;;
11269;SDS011;5692;48.956;9.200;2022-07-24T07:58:16;253.00;;;240.90;;
11269;SDS011;5692;48.956;9.200;2022-07-24T08:00:42;253.73;;;241.60;;
11269;SDS011;5692;48.956;9.200;2022-07-24T08:03:09;273.83;;;260.77;;
11269;SDS011;5692;48.956;9.200;2022-07-24T08:05:35;256.63;;;244.33;;
11269;SDS011;5692;48.956;9.200;2022-07-24T08:08:01;242.93;;;231.33;;
11269;SDS011;5692;48.956;9.200;2022-07-24T08:10:27;258.13;;;245.80;;
11269;SDS011;5692;48.956;9.200;2022-07-24T08:12:55;252.07;;;240.03;;
11269;SDS011;5692;48.956;9.200;2022-07-24T08:15:21;259.57;;;247.17;;
11269;SDS011;5692;48.956;9.200;2022-07-24T08:17:51;257.33;;;245.03;;
11269;SDS011;5692;48.956;9.200;2022-07-24T08:20:17;249.17;;;237.27;;
11269;SDS011;5692;48.956;9.200;2022-07-24T08:22:44;263.03;;;250.43;;
11269;SDS011;5692;48.956;9.200;2022-07-24T08:25:10;253.63;;;241.50;;
11269;SDS011;5692;48.956;9.200;2022-07-24T08:27:37;240.53;;;229.03;;
11269;SDS011;5692;48.956;9.200;2022-07-24T08:30:04;264.00;;;251.37;;
11269;SDS011;5692;48.956;9.200;2022-07-24T08:32:30;260.93;;;248.47;;
11269;SDS011;5692;48.956;9.200;2022-07-24T08:34:56;265.00;;;252.33;;
11269;SDS011;5692;48.956;9.200;2022-07-24T08:37:22;306.10;;;291.50;;
11269;SDS011;5692;48.956;9.200;2022-07-24T08:39:48;261.60;;;249.10;;
11269;SDS011;5692;48.956;9.200;2022-07-24T08:42:14;276.43;;;263.20;;
11269;SDS011;5692;48.956;9.200;2022-07-24T08:44:40;279.10;;;265.77;;
11269;SDS011;5692;48.956;9.200;2022-07-24T08:47:06;293.97;;;279.93;;
11269;SDS011;5692;48.956;9.200;2022-07-24T08:49:33;306.73;;;292.07;;
11269;SDS011;5692;48.956;9.200;2022-07-24T08:52:02;315.43;;;300.33;;
11269;SDS011;5692;48.956;9.200;2022-07-24T08:54:29;305.97;;;291.33;;
11269;SDS011;5692;48.956;9.200;2022-07-24T08:56:56;274.40;;;261.30;;
11269;SDS011;5692;48.956;9.200;2022-07-24T08:59:22;238.70;;;227.30;;
11269;SDS011;5692;48.956;9.200;2022-07-24T09:01:49;240.50;;;229.00;;
11269;SDS011;5692;48.956;9.200;2022-07-24T09:07:18;231.27;;;220.20;;
11269;SDS011;5692;48.956;9.200;2022-07-24T09:09:58;214.50;;;204.20;;
11269;SDS011;5692;48.956;9.200;2022-07-24T09:12:24;222.73;;;212.07;;
11269;SDS011;5692;48.956;9.200;2022-07-24T09:14:50;278.80;;;265.50;;
11269;SDS011;5692;48.956;9.200;2022-07-24T09:17:18;305.83;;;291.23;;
11269;SDS011;5692;48.956;9.200;2022-07-24T09:19:58;302.37;;;287.93;;
11269;SDS011;5692;48.956;9.200;2022-07-24T09:22:26;286.07;;;272.40;;
11269;SDS011;5692;48.956;9.200;2022-07-24T09:27:31;313.20;;;298.20;;
11269;SDS011;5692;48.956;9.200;2022-07-24T09:29:57;313.70;;;298.70;;
11269;SDS011;5692;48.956;9.200;2022-07-24T09:32:23;294.77;;;280.67;;
11269;SDS011;5692;48.956;9.200;2022-07-24T09:34:50;299.63;;;285.30;;
11269;SDS011;5692;48.956;9.200;2022-07-24T09:37:17;286.10;;;272.43;;
11269;SDS011;5692;48.956;9.200;2022-07-24T09:39:43;271.97;;;258.97;;
11269;SDS011;5692;48.956;9.200;2022-07-24T09:42:09;282.77;;;269.27;;
11269;SDS011;5692;48.956;9.200;2022-07-24T09:44:36;259.77;;;247.33;;
11269;SDS011;5692;48.956;9.200;2022-07-24T09:47:03;263.27;;;250.67;;
11269;SDS011;5692;48.956;9.200;2022-07-24T09:49:30;264.37;;;251.73;;
11269;SDS011;5692;48.956;9.200;2022-07-24T09:54:32;274.70;;;261.57;;
11269;SDS011;5692;48.956;9.200;2022-07-24T09:57:21;260.73;;;248.27;;
11269;SDS011;5692;48.956;9.200;2022-07-24T09:59:49;276.57;;;263.37;;
11269;SDS011;5692;48.956;9.200;2022-07-24T10:02:16;257.27;;;244.97;;
11269;SDS011;5692;48.956;9.200;2022-07-24T10:04:43;268.60;;;255.77;;
11269;SDS011;5692;48.956;9.200;2022-07-24T10:07:10;271.50;;;258.53;;
11269;SDS011;5692;48.956;9.200;2022-07-24T10:09:40;263.77;;;251.17;;
11269;SDS011;5692;48.956;9.200;2022-07-24T10:12:07;247.43;;;235.63;;
11269;SDS011;5692;48.956;9.200;2022-07-24T10:14:36;235.40;;;224.13;;
11269;SDS011;5692;48.956;9.200;2022-07-24T10:17:05;222.13;;;211.50;;
11269;SDS011;5692;48.956;9.200;2022-07-24T10:19:36;156.43;;;148.93;;
11269;SDS011;5692;48.956;9.200;2022-07-24T10:22:04;15.27;;;14.47;;
11269;SDS011;5692;48.956;9.200;2022-07-24T10:27:31;124.00;;;118.03;;
11269;SDS011;5692;48.956;9.200;2022-07-24T10:30:07;161.53;;;153.83;;
11269;SDS011;5692;48.956;9.200;2022-07-24T10:32:34;187.83;;;178.83;;
11269;SDS011;5692;48.956;9.200;2022-07-24T10:35:06;187.23;;;178.27;;
11269;SDS011;5692;48.956;9.200;2022-07-24T10:40:23;169.80;;;161.67;;
11269;SDS011;5692;48.956;9.200;2022-07-24T10:53:25;168.83;;;160.73;;
11269;SDS011;5692;48.956;9.200;2022-07-24T10:55:51;132.13;;;125.80;;
11269;SDS011;5692;48.956;9.200;2022-07-24T10:58:20;149.70;;;142.50;;
11269;SDS011;5692;48.956;9.200;2022-07-24T11:00:47;149.37;;;142.20;;
11269;SDS011;5692;48.956;9.200;2022-07-24T11:06:04;145.23;;;138.27;;
11269;SDS011;5692;48.956;9.200;2022-07-24T11:08:32;142.13;;;135.30;;
11269;SDS011;5692;48.956;9.200;2022-07-24T11:11:20;177.03;;;168.53;;
11269;SDS011;5692;48.956;9.200;2022-07-24T11:13:46;184.10;;;175.30;;
11269;SDS011;5692;48.956;9.200;2022-07-24T11:21:10;166.20;;;158.20;;
11269;SDS011;5692;48.956;9.200;2022-07-24T11:23:36;173.63;;;165.33;;
11269;SDS011;5692;48.956;9.200;2022-07-24T11:31:31;187.37;;;178.37;;
11269;SDS011;5692;48.956;9.200;2022-07-24T11:33:58;173.90;;;165.60;;
11269;SDS011;5692;48.956;9.200;2022-07-24T11:36:25;187.27;;;178.30;;
11269;SDS011;5692;48.956;9.200;2022-07-24T11:38:51;156.37;;;148.87;;
11269;SDS011;5692;48.956;9.200;2022-07-24T11:41:17;170.93;;;162.73;;
11269;SDS011;5692;48.956;9.200;2022-07-24T11:43:52;124.50;;;118.53;;
11269;SDS011;5692;48.956;9.200;2022-07-24T11:46:34;196.00;;;186.60;;
11269;SDS011;5692;48.956;9.200;2022-07-24T11:49:01;177.77;;;169.23;;
11269;SDS011;5692;48.956;9.200;2022-07-24T11:51:28;195.60;;;186.23;;
11269;SDS011;5692;48.956;9.200;2022-07-24T11:53:54;190.67;;;181.57;;
11269;SDS011;5692;48.956;9.200;2022-07-24T11:56:21;182.77;;;174.00;;
11269;SDS011;5692;48.956;9.200;2022-07-24T11:58:47;186.23;;;177.33;;
11269;SDS011;5692;48.956;9.200;2022-07-24T12:01:21;178.37;;;169.83;;
11269;SDS011;5692;48.956;9.200;2022-07-24T12:03:49;177.67;;;169.17;;
11269;SDS011;5692;48.956;9.200;2022-07-24T12:06:17;186.80;;;177.87;;
11269;SDS011;5692;48.956;9.200;2022-07-24T12:08:43;175.10;;;166.70;;
11269;SDS011;5692;48.956;9.200;2022-07-24T12:11:09;172.87;;;164.57;;
11269;SDS011;5692;48.956;9.200;2022-07-24T12:13:36;174.67;;;166.30;;
11269;SDS011;5692;48.956;9.200;2022-07-24T12:16:06;162.30;;;154.50;;
11269;SDS011;5692;48.956;9.200;2022-07-24T12:18:32;135.00;;;128.53;;
11269;SDS011;5692;48.956;9.200;2022-07-24T12:20:59;129.43;;;123.23;;
11269;SDS011;5692;48.956;9.200;2022-07-24T12:23:25;132.60;;;126.23;;
11269;SDS011;5692;48.956;9.200;2022-07-24T12:25:51;146.17;;;139.17;;
11269;SDS011;5692;48.956;9.200;2022-07-24T12:28:18;161.73;;;153.97;;
11269;SDS011;5692;48.956;9.200;2022-07-24T12:30:50;161.37;;;153.63;;
11269;SDS011;5692;48.956;9.200;2022-07-24T12:33:20;159.63;;;152.00;;
11269;SDS011;5692;48.956;9.200;2022-07-24T12:38:32;157.43;;;149.90;;
11269;SDS011;5692;48.956;9.200;2022-07-24T12:46:12;146.70;;;139.70;;
11269;SDS011;5692;48.956;9.200;2022-07-24T12:48:39;165.57;;;157.67;;
11269;SDS011;5692;48.956;9.200;2022-07-24T12:51:09;189.47;;;180.40;;
11269;SDS011;5692;48.956;9.200;2022-07-24T12:53:36;196.17;;;186.77;;
11269;SDS011;5692;48.956;9.200;2022-07-24T12:58:29;194.93;;;185.63;;
11269;SDS011;5692;48.956;9.200;2022-07-24T13:00:55;191.43;;;182.27;;
11269;SDS011;5692;48.956;9.200;2022-07-24T13:03:25;193.87;;;184.57;;
11269;SDS011;5692;48.956;9.200;2022-07-24T13:05:54;196.93;;;187.50;;
11269;SDS011;5692;48.956;9.200;2022-07-24T13:08:21;192.07;;;182.87;;
11269;SDS011;5692;48.956;9.200;2022-07-24T13:10:47;188.33;;;179.33;;
11269;SDS011;5692;48.956;9.200;2022-07-24T13:13:13;196.53;;;187.13;;
11269;SDS011;5692;48.956;9.200;2022-07-24T13:15:39;195.53;;;186.13;;
11269;SDS011;5692;48.956;9.200;2022-07-24T13:18:05;192.83;;;183.60;;
11269;SDS011;5692;48.956;9.200;2022-07-24T13:20:31;206.30;;;196.43;;
11269;SDS011;5692;48.956;9.200;2022-07-24T13:22:57;203.43;;;193.70;;
11269;SDS011;5692;48.956;9.200;2022-07-24T13:25:23;197.87;;;188.37;;
11269;SDS011;5692;48.956;9.200;2022-07-24T13:27:49;199.10;;;189.57;;
11269;SDS011;5692;48.956;9.200;2022-07-24T13:30:15;199.90;;;190.30;;
11269;SDS011;5692;48.956;9.200;2022-07-24T13:32:41;185.00;;;176.13;;
11269;SDS011;5692;48.956;9.200;2022-07-24T13:35:07;188.70;;;179.67;;
11269;SDS011;5692;48.956;9.200;2022-07-24T13:37:34;187.43;;;178.43;;
11269;SDS011;5692;48.956;9.200;2022-07-24T13:40:00;189.67;;;180.57;;
11269;SDS011;5692;48.956;9.200;2022-07-24T13:42:28;188.27;;;179.23;;
11269;SDS011;5692;48.956;9.200;2022-07-24T13:44:54;208.80;;;198.83;;
11269;SDS011;5692;48.956;9.200;2022-07-24T13:47:20;205.40;;;195.60;;
11269;SDS011;5692;48.956;9.200;2022-07-24T13:49:46;218.20;;;207.77;;
11269;SDS011;5692;48.956;9.200;2022-07-24T13:52:12;206.37;;;196.47;;
11269;SDS011;5692;48.956;9.200;2022-07-24T13:54:39;205.27;;;195.47;;
11269;SDS011;5692;48.956;9.200;2022-07-24T13:57:06;200.37;;;190.77;;
11269;SDS011;5692;48.956;9.200;2022-07-24T13:59:32;195.17;;;185.87;;
11269;SDS011;5692;48.956;9.200;2022-07-24T14:01:58;197.63;;;188.13;;
11269;SDS011;5692;48.956;9.200;2022-07-24T14:04:24;191.83;;;182.63;;
11269;SDS011;5692;48.956;9.200;2022-07-24T14:06:51;191.90;;;182.70;;
11269;SDS011;5692;48.956;9.200;2022-07-24T14:09:17;200.33;;;190.73;;
11269;SDS011;5692;48.956;9.200;2022-07-24T14:11:43;189.17;;;180.10;;
11269;SDS011;5692;48.956;9.200;2022-07-24T14:14:09;182.47;;;173.73;;
11269;SDS011;5692;48.956;9.200;2022-07-24T14:16:35;176.30;;;167.87;;
11269;SDS011;5692;48.956;9.200;2022-07-24T14:19:02;146.00;;;139.00;;
11269;SDS011;5692;48.956;9.200;2022-07-24T14:21:28;165.13;;;157.20;;
11269;SDS011;5692;48.956;9.200;2022-07-24T14:23:55;170.93;;;162.73;;
11269;SDS011;5692;48.956;9.200;2022-07-24T14:26:21;180.50;;;171.87;;
11269;SDS011;5692;48.956;9.200;2022-07-24T14:28:47;186.60;;;177.70;;
11269;SDS011;5692;48.956;9.200;2022-07-24T14:31:13;194.33;;;185.03;;
11269;SDS011;5692;48.956;9.200;2022-07-24T14:33:39;213.20;;;203.00;;
11269;SDS011;5692;48.956;9.200;2022-07-24T14:36:05;203.83;;;194.07;;
11269;SDS011;5692;48.956;9.200;2022-07-24T14:38:31;213.50;;;203.27;;
11269;SDS011;5692;48.956;9.200;2022-07-24T14:40:57;243.83;;;232.13;;
11269;SDS011;5692;48.956;9.200;2022-07-24T14:43:23;220.03;;;209.53;;
11269;SDS011;5692;48.956;9.200;2022-07-24T14:45:49;223.50;;;212.83;;
11269;SDS011;5692;48.956;9.200;2022-07-24T14:48:15;223.80;;;213.07;;
11269;SDS011;5692;48.956;9.200;2022-07-24T14:50:41;216.20;;;205.87;;
11269;SDS011;5692;48.956;9.200;2022-07-24T14:53:07;224.87;;;214.10;;